Latest Weather Observations for Stenhouse Bay

IDS60801

Issued at 6:31 am CDT Saturday 31 January 2015 (issued every 30 minutes, with the page automatically refreshed every 10 minutes)

About weather observations | Map of weather stations | Latest weather observations for SA | Other Formats
Station Details ID: 022049 Name: STENHOUSE BAY Lat: -35.28 Lon: 136.94 Height: 42.0 m
Data from the previous 72 hours. | See also: Recent months at Stenhouse Bay
Date/Time
CDT
Temp
°C
App
Temp
°C
Dew
Point
Rel
Hum
%
Delta-T
°C
Wind Press
QNH
hPa
Press
MSL
hPa
Rain
since 9 am
mm
Dir
 
Spd
km/h
Gust
km/h
Spd
kts
Gust
kts
31/06:30am 16.3 10.4 11.0 71 2.8 SE 33 44 18 24 1016.0 1015.8 0.0
31/06:00am 16.2 10.4 10.9 71 2.8 ESE 32 39 17 21 1015.9 1015.7 0.0
31/05:30am 16.2 9.7 10.5 69 3.0 SE 35 43 19 23 1015.5 1015.3 0.0
31/05:00am 16.3 9.5 10.6 69 3.0 SE 37 46 20 25 1015.6 1015.4 0.0
31/04:30am 16.5 10.2 11.2 71 2.9 SE 35 44 19 24 1015.6 1015.4 0.0
31/04:00am 16.3 9.5 10.6 69 3.0 SE 37 48 20 26 1015.6 1015.4 0.0
31/03:30am 16.2 9.4 10.7 70 2.9 SE 37 50 20 27 1015.3 1015.1 0.0
31/03:00am 16.1 9.7 10.6 70 2.9 SE 35 46 19 25 1015.0 1014.8 0.0
31/02:30am 16.3 10.4 11.2 72 2.7 SE 33 46 18 25 1015.1 1014.9 0.0
31/02:00am 16.0 8.6 9.9 67 3.2 SE 39 54 21 29 1015.4 1015.2 0.0
31/01:51am 16.1 10.0 10.4 69 3.0 SE 33 54 18 29 1015.6 1015.4 0.0
31/01:30am 16.0 9.8 10.1 68 3.1 SE 33 48 18 26 1016.0 1015.8 0.0
31/01:00am 16.1 9.2 10.4 69 3.0 SE 37 48 20 26 1016.2 1016.0 0.0
31/12:30am 16.0 10.0 10.1 68 3.1 SE 32 46 17 25 1016.3 1016.1 0.0
31/12:00am 16.0 9.8 9.9 67 3.2 SE 33 46 18 25 1016.4 1016.2 0.0
 
Date/Time
CDT
Temp
°C
App
Temp
°C
Dew
Point
Rel
Hum
%
Delta-T
°C
Wind Press
QNH
hPa
Press
MSL
hPa
Rain
since 9 am
mm
Dir
 
Spd
km/h
Gust
km/h
Spd
kts
Gust
kts
30/11:30pm 16.1 10.5 10.0 67 3.2 SE 30 43 16 23 1016.3 1016.1 0.0
30/11:00pm 16.2 10.3 10.3 68 3.1 SE 32 43 17 23 1016.2 1016.0 0.0
30/10:30pm 16.5 10.6 10.6 68 3.1 SSE 32 43 17 23 1016.4 1016.2 0.0
30/10:00pm 16.6 11.1 10.5 67 3.2 SSE 30 44 16 24 1016.6 1016.4 0.0
30/09:30pm 16.7 11.1 10.1 65 3.5 SE 30 39 16 21 1016.3 1016.1 0.0
30/09:00pm 17.3 11.6 11.1 67 3.3 SSE 32 43 17 23 1016.2 1016.0 0.0
30/08:30pm 17.6 11.6 10.9 65 3.6 SSE 33 44 18 24 1015.8 1015.6 0.0
30/08:00pm 18.4 12.3 10.3 59 4.3 SSE 33 41 18 22 1015.7 1015.5 0.0
30/07:30pm 18.9 12.3 9.9 56 4.8 SSE 35 43 19 23 1015.6 1015.4 0.0
30/07:00pm 19.8 13.9 11.0 57 4.8 SSE 33 43 18 23 1015.4 1015.2 0.0
30/06:30pm 20.5 14.9 12.0 58 4.7 SSE 33 39 18 21 1015.1 1014.9 0.0
30/06:00pm 21.3 16.4 11.3 53 5.5 ESE 28 35 15 19 1015.2 1015.0 0.0
30/05:30pm 21.7 16.7 10.8 50 6.0 ESE 28 35 15 19 1015.2 1015.0 0.0
30/05:00pm 22.5 17.5 10.9 48 6.4 ESE 28 35 15 19 1015.4 1015.2 0.0
30/04:30pm 22.9 17.4 10.7 46 6.7 ESE 30 37 16 20 1015.4 1015.2 0.0
30/04:00pm 22.7 17.6 12.0 50 6.0 ESE 30 35 16 19 1015.5 1015.3 0.0
30/03:30pm 21.7 17.5 13.6 60 4.7 E 28 35 15 19 1015.8 1015.6 0.0
30/03:00pm 22.2 18.5 13.8 59 4.9 E 26 32 14 17 1016.1 1015.9 0.0
30/02:30pm 22.4 18.1 13.2 56 5.3 ESE 28 35 15 19 1016.3 1016.1 0.0
30/02:00pm 22.4 18.6 13.5 57 5.2 E 26 32 14 17 1016.9 1016.7 0.0
30/01:30pm 21.9 18.1 13.5 59 4.8 E 26 32 14 17 1017.0 1016.8 0.0
30/01:00pm 22.1 17.8 13.2 57 5.1 E 28 37 15 20 1017.0 1016.8 0.0
30/12:30pm 21.8 17.5 13.2 58 4.9 ESE 28 35 15 19 1017.3 1017.2 0.0
30/12:00pm 22.1 17.5 13.5 58 5.0 ESE 30 39 16 21 1017.3 1017.2 0.0
30/11:30am 21.9 17.2 13.3 58 4.9 ESE 30 39 16 21 1017.5 1017.4 0.0
30/11:00am 21.2 16.1 13.1 60 4.6 ESE 32 41 17 22 1017.6 1017.5 0.0
30/10:30am 20.4 14.3 13.1 63 4.2 ESE 37 44 20 24 1017.5 1017.4 0.0
30/10:00am 19.5 13.8 13.0 66 3.7 ESE 35 43 19 23 1017.7 1017.6 0.0
30/09:30am 19.1 13.5 13.3 69 3.3 ESE 35 43 19 23 1017.5 1017.4 0.0
30/09:00am 18.6 13.1 13.5 72 2.9 ESE 35 43 19 23 1017.4 1017.3 0.0
30/08:30am 18.0 12.8 13.5 75 2.5 ESE 33 43 18 23 1017.2 1017.1 0.0
30/08:00am 17.7 12.6 13.6 77 2.3 ESE 33 43 18 23 1017.0 1016.8 0.0
30/07:30am 17.3 12.3 13.4 78 2.2 SE 32 41 17 22 1016.6 1016.4 0.0
30/07:00am 16.9 11.4 13.6 81 1.9 ESE 35 44 19 24 1016.3 1016.1 0.0
30/06:30am 16.9 11.8 13.8 82 1.8 SE 33 41 18 22 1016.1 1015.9 0.0
30/06:00am 17.2 12.2 13.9 81 1.9 ESE 33 41 18 22 1015.9 1015.7 0.0
30/05:30am 17.4 12.4 13.9 80 2.0 ESE 33 41 18 22 1015.6 1015.4 0.0
30/05:00am 17.4 12.4 13.9 80 2.0 ESE 33 43 18 23 1015.4 1015.2 0.0
30/04:30am 17.4 12.3 13.7 79 2.1 ESE 33 39 18 21 1015.5 1015.3 0.0
30/04:00am 17.4 12.4 13.5 78 2.2 ESE 32 39 17 21 1015.6 1015.4 0.0
30/03:30am 17.5 11.9 13.2 76 2.4 ESE 35 43 19 23 1015.8 1015.6 0.0
30/03:00am 17.7 12.6 13.8 78 2.2 ESE 33 44 18 24 1016.1 1015.9 0.0
30/02:30am 17.6 12.3 13.1 75 2.5 ESE 33 43 18 23 1016.0 1015.8 0.0
30/02:00am 17.6 12.0 13.3 76 2.4 ESE 35 44 19 24 1016.2 1016.0 0.0
30/01:30am 17.4 12.9 13.9 80 2.0 SE 30 43 16 23 1016.3 1016.1 0.0
30/01:00am 17.4 13.3 13.9 80 2.0 SE 28 39 15 21 1016.6 1016.4 0.0
30/12:30am 17.3 12.7 13.4 78 2.2 SE 30 35 16 19 1016.6 1016.4 0.0
30/12:00am 17.4 12.9 13.7 79 2.1 SE 30 39 16 21 1016.7 1016.5 0.0
 
Date/Time
CDT
Temp
°C
App
Temp
°C
Dew
Point
Rel
Hum
%
Delta-T
°C
Wind Press
QNH
hPa
Press
MSL
hPa
Rain
since 9 am
mm
Dir
 
Spd
km/h
Gust
km/h
Spd
kts
Gust
kts
29/11:30pm 17.3 11.2 13.0 76 2.4 SE 37 44 20 24 1016.8 1016.6 0.0
29/11:00pm 17.4 12.2 13.3 77 2.3 SE 33 43 18 23 1016.9 1016.7 0.0
29/10:30pm 17.6 12.3 13.1 75 2.5 SE 33 43 18 23 1017.0 1016.8 0.0
29/10:00pm 17.8 12.4 12.9 73 2.7 SE 33 46 18 25 1016.9 1016.7 0.0
29/09:30pm 18.2 12.4 12.6 70 3.1 SE 35 44 19 24 1016.7 1016.5 0.0
29/09:00pm 18.9 13.8 13.1 69 3.3 SE 32 43 17 23 1016.6 1016.4 0.0
29/08:30pm 19.8 15.7 12.8 64 4.0 SE 26 35 14 19 1016.4 1016.2 0.0
29/08:00pm 20.4 15.9 12.6 61 4.4 SE 28 35 15 19 1016.1 1015.9 0.0
29/07:30pm 21.0 16.5 12.7 59 4.7 SE 28 35 15 19 1016.0 1015.8 0.0
29/07:00pm 21.6 17.1 12.5 56 5.2 SE 28 33 15 18 1016.0 1015.8 0.0
29/06:30pm 22.6 19.0 13.1 55 5.5 SE 24 32 13 17 1016.0 1015.8 0.0
29/06:00pm 23.3 20.4 12.9 52 6.0 SE 20 28 11 15 1016.1 1015.9 0.0
29/05:30pm 23.7 20.3 13.6 53 5.9 ESE 24 30 13 16 1016.2 1016.0 0.0
29/05:00pm 24.0 20.2 12.3 48 6.7 ESE 24 30 13 16 1016.4 1016.2 0.0
29/04:30pm 24.4 19.6 11.7 45 7.2 ESE 28 35 15 19 1016.6 1016.4 0.0
29/04:00pm 24.1 20.0 11.4 45 7.2 ESE 24 30 13 16 1016.9 1016.7 0.0
29/03:30pm 23.7 19.3 11.7 47 6.8 ESE 26 32 14 17 1017.2 1017.1 0.0
29/03:00pm 23.4 19.2 12.4 50 6.3 ESE 26 33 14 18 1017.4 1017.3 0.0
29/02:30pm 24.0 19.8 12.3 48 6.7 ESE 26 32 14 17 1017.6 1017.5 0.0
29/02:00pm 23.4 18.9 12.7 51 6.1 ESE 28 35 15 19 1017.7 1017.6 0.0
29/01:30pm 23.3 18.5 12.9 52 6.0 ESE 30 35 16 19 1018.0 1017.9 0.0
29/01:00pm 23.1 17.8 12.4 51 6.1 ESE 32 39 17 21 1018.2 1018.1 0.0
29/12:30pm 22.5 17.3 12.7 54 5.6 ESE 32 41 17 22 1018.3 1018.2 0.0
29/12:00pm 22.1 16.9 12.9 56 5.3 ESE 32 39 17 21 1018.6 1018.5 0.0
29/11:30am 21.4 16.0 12.8 58 4.9 ESE 33 39 18 21 1018.8 1018.7 0.0
29/11:00am 21.3 16.1 12.7 58 4.9 ESE 32 43 17 23 1018.8 1018.7 0.0
29/10:30am 21.1 15.4 13.0 60 4.6 ESE 35 44 19 24 1018.6 1018.5 0.0
29/10:00am 20.6 14.8 12.8 61 4.4 ESE 35 44 19 24 1018.6 1018.5 0.0
29/09:30am 20.2 14.2 13.2 64 4.0 ESE 37 46 20 25 1018.6 1018.5 0.0
29/09:00am 19.9 13.6 13.4 66 3.7 ESE 39 46 21 25 1018.4 1018.3 0.0
29/08:30am 19.3 12.9 13.3 68 3.4 ESE 39 50 21 27 1018.0 1017.9 0.0
29/08:00am 19.0 12.8 13.8 72 3.0 ESE 39 50 21 27 1017.5 1017.4 0.0
29/07:30am 18.5 12.9 14.4 77 2.4 ESE 37 50 20 27 1017.3 1017.2 0.0
29/07:00am 17.8 12.5 14.3 80 2.0 ESE 35 44 19 24 1017.1 1016.9 0.0
29/06:30am 17.5 11.8 14.2 81 1.9 ESE 37 46 20 25 1016.8 1016.6 0.0
29/06:00am 17.5 11.9 14.4 82 1.8 ESE 37 48 20 26 1016.8 1016.6 0.0
29/05:30am 17.5 11.9 14.4 82 1.8 ESE 37 46 20 25 1016.5 1016.3 0.0
29/05:00am 17.4 11.7 14.1 81 1.9 ESE 37 46 20 25 1016.3 1016.1 0.0
29/04:30am 17.6 12.3 14.1 80 2.0 SE 35 44 19 24 1016.4 1016.2 0.0
29/04:00am 17.6 12.6 14.1 80 2.0 SE 33 41 18 22 1016.5 1016.3 0.0
29/03:30am 17.6 12.7 14.3 81 1.9 SE 33 43 18 23 1016.8 1016.6 0.0
29/03:00am 17.6 12.9 14.3 81 1.9 SE 32 41 17 22 1016.9 1016.7 0.0
29/02:30am 17.6 13.4 14.7 83 1.7 SE 30 37 16 20 1017.0 1016.8 0.0
29/02:00am 17.5 13.3 14.6 83 1.7 SE 30 37 16 20 1017.3 1017.2 0.0
29/01:30am 17.4 13.9 14.5 83 1.7 SE 26 37 14 20 1017.6 1017.5 0.0
29/01:00am 17.4 13.5 14.3 82 1.8 SE 28 35 15 19 1017.7 1017.6 0.0
29/12:30am 17.4 13.4 14.1 81 1.9 SE 28 35 15 19 1017.7 1017.6 0.0
29/12:00am 17.3 13.6 13.8 80 2.0 SE 26 33 14 18 1017.9 1017.8 0.0
 
Date/Time
CDT
Temp
°C
App
Temp
°C
Dew
Point
Rel
Hum
%
Delta-T
°C
Wind Press
QNH
hPa
Press
MSL
hPa
Rain
since 9 am
mm
Dir
 
Spd
km/h
Gust
km/h
Spd
kts
Gust
kts
28/11:30pm 17.3 13.2 13.8 80 2.0 SE 28 35 15 19 1017.9 1017.8 0.0
28/11:00pm 17.2 12.7 13.7 80 2.0 SE 30 37 16 20 1017.9 1017.8 0.0
28/10:30pm 17.1 12.1 13.4 79 2.1 SE 32 46 17 25 1017.9 1017.8 0.0
28/10:00pm 17.0 12.3 13.1 78 2.2 SE 30 43 16 23 1017.9 1017.8 0.0
28/09:30pm 17.1 11.9 12.8 76 2.4 SSE 32 44 17 24 1017.6 1017.5 0.0
28/09:00pm 17.4 12.5 12.7 74 2.6 SE 30 41 16 22 1017.6 1017.5 0.0
28/08:30pm 17.7 12.3 12.2 70 3.0 SE 32 41 17 22 1017.5 1017.4 0.0
28/08:00pm 18.4 13.2 11.5 64 3.8 SSE 30 43 16 23 1017.3 1017.2 0.0
28/07:30pm 19.1 14.2 11.4 61 4.2 SE 28 41 15 22 1017.4 1017.3 0.0
28/07:00pm 19.9 15.3 10.9 56 4.9 SE 26 39 14 21 1017.4 1017.3 0.0
28/06:30pm 20.2 15.1 10.6 54 5.2 SSE 28 39 15 21 1017.3 1017.2 0.0
28/06:00pm 20.2 14.2 10.0 52 5.5 SSE 32 43 17 23 1017.2 1017.1 0.0
28/05:30pm 21.4 16.7 10.6 50 5.9 SE 26 37 14 20 1017.5 1017.4 0.0
28/05:00pm 21.4 16.3 10.6 50 5.9 SE 28 37 15 20 1017.6 1017.5 0.0
28/04:30pm 21.7 16.8 9.9 47 6.4 SSE 26 37 14 20 1017.7 1017.6 0.0
28/04:00pm 22.2 16.5 9.7 45 6.8 SE 30 39 16 21 1017.8 1017.7 0.0
28/03:30pm 22.3 16.8 10.5 47 6.5 SE 30 39 16 21 1018.1 1018.0 0.0
28/03:00pm 22.1 16.9 10.3 47 6.4 SE 28 35 15 19 1018.1 1018.0 0.0
28/02:30pm 21.9 16.9 9.4 45 6.7 SE 26 35 14 19 1018.6 1018.5 0.0
28/02:00pm 22.4 17.3 10.5 47 6.5 ESE 28 39 15 21 1019.0 1018.9 0.0
28/01:30pm 21.4 15.6 9.3 46 6.5 ESE 30 39 16 21 1019.3 1019.2 0.0
28/01:00pm 21.2 15.4 10.7 51 5.8 ESE 32 43 17 23 1019.5 1019.4 0.0
28/12:30pm 18.3 12.3 10.2 59 4.3 SE 32 39 17 21 1019.6 1019.5 0.0
28/12:00pm 18.7 13.4 10.0 57 4.6 SE 28 39 15 21 1019.5 1019.4 0.0
28/11:30am 19.7 13.9 9.3 51 5.5 ESE 30 39 16 21 1019.4 1019.3 0.0
28/11:00am 18.8 11.6 9.3 54 5.0 ESE 37 48 20 26 1019.7 1019.6 0.0
28/10:30am 17.6 11.9 9.8 60 4.1 SE 30 39 16 21 1019.9 1019.8 0.0
28/10:00am 17.6 11.6 10.0 61 4.0 ESE 32 43 17 23 1019.7 1019.6 0.0
28/09:30am 16.8 11.0 9.5 62 3.8 SE 30 43 16 23 1019.6 1019.5 0.0
28/09:00am 16.7 10.4 9.1 61 3.9 SE 32 43 17 23 1019.4 1019.3 0.0
28/08:30am 16.6 9.8 9.1 61 3.9 ESE 35 43 19 23 1018.9 1018.8 0.0
28/08:00am 16.6 10.3 9.8 64 3.6 ESE 33 44 18 24 1018.8 1018.7 0.0
28/07:30am 16.1 9.8 9.1 63 3.6 SE 32 41 17 22 1018.4 1018.3 0.0
28/07:00am 15.6 9.0 8.4 62 3.7 ESE 33 43 18 23 1018.2 1018.1 0.0

Other Formats:

Comma delimited format used in spreadsheet applications
http://www.bom.gov.au/fwo/IDS60801/IDS60801.95806.axf

JavaScript Object Notation format (JSON) in row-major order
http://www.bom.gov.au/fwo/IDS60801/IDS60801.95806.json